Tiempo atmosférico en la estación meteorológica de Colunga, Asturias (35 m.)



Fecha
DESCASC
Temp. máxima en grados centígrados (hora)
DESCASC
Temp. mínima en grados centígrados (hora)
DESCASC
Temp. media en grados centígrados
DESCASC
Racha de viento máxima en m/sg (hora)
DESCASC
Velocidad máxima media en intervalos de 10 minutos(hora)
DESCASC
Precipitaciones diarias en mm
DESCASC
Precipitaciones de 00:00 a 06:00 en mm
DESCASC
Precipitaciones de 06:00 a 12:00 en mm
DESCASC
Precipitaciones de 12:00 a 18:00 en mm
DESCASC
Precipitaciones de 18:00 a 24:00 en mm
DESCASC
18-04-2019 15.1 (12:50) 11.1 (08:30) 13.1 8.33 (15:40) 4.44 (16:10) 2.2 0 0 0.6 1.6
17-04-2019 25.3 (13:00) 9.6 (05:50) 17.4 8.33 (23:10) 4.72 (23:10) 0 0 0 0 0
16-04-2019 15.5 (14:50) 7.5 (00:00) 11.5 8.33 (14:00) 5.28 (14:00) 0 0 0 0 0
15-04-2019 18.4 (11:40) 10.7 (00:00) 14.5 11.94 (12:00) 5.56 (12:00) 15 0 0.8 9 5.2
14-04-2019 17.6 (12:00) 10.5 (00:00) 14.1 8.33 (23:59) 5.56 (23:50) 0 0 0 0 0
13-04-2019 15.1 (15:50) 6.1 (00:00) 10.6 5 (15:20) 3.33 (14:40) 0 0 0 0 0
12-04-2019 14.1 (13:50) 5.6 (00:00) 9.9 10 (19:20) 6.11 (18:10) 0 0 0 0 0
11-04-2019 13.1 (17:30) 7.7 (00:00) 10.4 7.22 (14:00) 3.89 (13:50) 0.4 0 0.2 0.2 0
10-04-2019 14 (18:40) 8.1 (00:00) 11.1 7.22 (10:00) 3.89 (10:00) 15.4 3.4 11 0.2 0.8
09-04-2019 14.9 (17:10) 7 (00:00) 10.9 7.22 (19:10) 4.72 (18:40) 0.6 0 0 0 0.6
08-04-2019 15.6 (13:40) 8.5 (00:00) 12.1 9.17 (05:10) 5.83 (18:20) 2.8 0.2 0.8 0 1.8
07-04-2019 15.5 (13:10) 6.9 (00:00) 11.2 8.33 (12:00) 4.44 (22:30) 6.8 5.8 0 0 1
06-04-2019 14 (12:10) 4 (00:00) 9 13.61 (20:00) 5.56 (20:10) 7.2 0 0 3.4 3.8
05-04-2019 13.2 (14:20) 6.4 (00:00) 9.8 8.61 (15:40) 5.83 (15:30) 4 0.6 0.2 0 3.2
04-04-2019 15.4 (13:40) 5.1 (00:00) 10.2 10.83 (02:20) 5.28 (02:00) 0.6 0.4 0 0 0.2
03-04-2019 11.1 (16:00) 5 (00:00) 8.1 13.06 (14:20) 6.11 (14:10) 21.2 2.2 6 8 5
02-04-2019 15.4 (14:00) 7.5 (00:00) 11.4 9.17 (15:30) 3.89 (13:10) 0.6 0 0 0 0.6
01-04-2019 15.3 (15:10) 6.4 (00:00) 10.9 4.72 (05:40) 3.33 (16:00) 0 0 0 0 0
31-03-2019 15.4 (16:40) 9.8 (00:00) 12.6 5.83 (21:30) 3.33 (21:40) 0 0 0 0 0
30-03-2019 14.6 (15:20) 6.3 (00:00) 10.5 3.89 (16:20) 2.78 (15:30) 0 0 0 0 0
29-03-2019 14.2 (16:10) 5 (00:00) 9.6 5.56 (01:30) 3.61 (01:30) 0 0 0 0 0
28-03-2019 14.2 (13:00) 2.9 (00:00) 8.5 10 (18:30) 6.67 (18:10) 0 0 0 0 0
27-03-2019 13.8 (11:50) 9 (00:00) 11.4 10.83 (14:20) 7.22 (13:50) 0 0 0 0 0
26-03-2019 12.3 (11:40) 8.9 (00:00) 10.6 16.67 (18:00) 11.11 (14:40) 0 0 0 0 0
25-03-2019 14.4 (12:00) 10.9 (00:00) 12.6 11.39 (23:20) 6.67 (20:10) 0 0 0 0 0
24-03-2019 15 (16:40) 7.7 (00:00) 11.3 7.78 (23:30) 3.89 (23:40) 0 0 0 0 0
23-03-2019 14.9 (15:30) 5.1 (00:00) 10 6.94 (16:50) 4.44 (16:40) 0 0 0 0 0
22-03-2019 15.6 (15:40) 5.4 (00:00) 10.5 5.28 (00:10) 3.33 (05:00) 0 0 0 0 0
21-03-2019 14 (13:20) 4.2 (00:00) 9.1 10 (20:00) 6.39 (18:20) 0 0 0 0 0

Gráficas

Temp. máximas Temp. mínimas Temp. medias Precipitaciones Rachas de viento máximas Velocidades máximas media en intervalos de 10 minutos

Datos horarios

Fecha y hora oficial Temperatura (ºC) Velocidad del viento (km/h) Dirección del viento Racha (km/h) Dirección de racha Precipitación (mm) Presión (hPa) Tendencia (hPa) Humedad (%)
2019-04-19 23:00:00 11.3 4 Sudoeste 11 Norte 0 -- -- 94
2019-04-19 22:00:00 12.5 0 Calma 13 Nordeste 0 -- -- 90
2019-04-19 21:00:00 13.7 5 Noroeste 15 Norte 0 -- -- 89
2019-04-19 20:00:00 14.4 9 Nordeste 24 Este 0 -- -- 88
2019-04-19 19:00:00 15.6 11 Nordeste 24 Nordeste 0 -- -- 84
2019-04-19 18:00:00 17 17 Nordeste 23 Este 0 -- -- 75
2019-04-19 17:00:00 16.7 9 Nordeste 17 Nordeste 0 -- -- 81
2019-04-19 16:00:00 16.3 7 Nordeste 23 Nordeste 0 -- -- 85
2019-04-19 15:00:00 15.8 9 Nordeste 24 Nordeste 0 -- -- 87
2019-04-19 14:00:00 16 12 Este 22 Este 0 -- -- 89
2019-04-19 13:00:00 16.4 13 Este 22 Este 0 -- -- 93
2019-04-19 12:00:00 14.8 8 Este 17 Este 0 -- -- 100
2019-04-19 11:00:00 13.4 9 Este 14 Este 0 -- -- 100
2019-04-19 10:00:00 13.1 5 Este 11 Este 0.2 -- -- 100
2019-04-19 09:00:00 12.7 2 Norte 8 Nordeste 0.2 -- -- 100
2019-04-19 08:00:00 12.5 4 Nordeste 13 Este 0.8 -- -- 100
2019-04-19 07:00:00 12.7 9 Este 19 Nordeste 1.2 -- -- 100
2019-04-19 06:00:00 12.4 3 Nordeste 14 Este 0 -- -- 100
2019-04-19 05:00:00 12.4 5 Nordeste 18 Nordeste 0.4 -- -- 100
2019-04-19 04:00:00 12.1 4 Nordeste 10 Este 1.6 -- -- 100
2019-04-19 03:00:00 12.2 4 Este 8 Norte 1 -- -- 100
2019-04-19 02:00:00 12.3 2 Nordeste 8 Este 0.6 -- -- 99
2019-04-19 01:00:00 12.3 4 Nordeste 17 Este 0.2 -- -- 99
2019-04-19 00:00:00 12.4 8 Este 16 Este 0 -- -- 99
2019-04-18 23:00:00 12.4 9 Este 14 Este 0.2 -- -- 99
2019-04-18 22:00:00 12.3 9 Este 19 Este 0.2 -- -- 98
2019-04-18 21:00:00 12.6 11 Este 18 Nordeste 0.8 -- -- 97
2019-04-18 20:00:00 12.7 5 Este 12 Este 0.4 -- -- 96
2019-04-18 19:00:00 13.3 5 Este 14 Este 0 -- -- 95
2019-04-18 18:00:00 13.3 10 Este 18 Este 0 -- -- 95
2019-04-18 17:00:00 13.5 9 Este 23 Este 0.2 -- -- 94
2019-04-18 16:00:00 13.5 15 Este 30 Este 0.2 -- -- 92
2019-04-18 15:00:00 14.2 14 Este 24 Este 0.2 -- -- 87
2019-04-18 14:00:00 14.6 9 Este 16 Este 0 -- -- 88
2019-04-18 13:00:00 15.1 6 Nordeste 13 Nordeste 0 -- -- 87
2019-04-18 12:00:00 14.3 4 Nordeste 13 Este 0 -- -- 91
2019-04-18 11:00:00 13.7 4 Nordeste 12 Nordeste 0 -- -- 88
2019-04-18 10:00:00 12.6 2 Sudoeste 10 Sudoeste 0 -- -- 92
2019-04-18 09:00:00 11.2 7 Sudoeste 10 Oeste 0 -- -- 92
2019-04-18 08:00:00 11.4 4 Sudoeste 15 Oeste 0 -- -- 88
2019-04-18 07:00:00 11.9 7 Sudoeste 13 Sudoeste 0 -- -- 86
2019-04-18 06:00:00 12.2 9 Oeste 17 Oeste 0 -- -- 86
2019-04-18 05:00:00 12 8 Oeste 15 Oeste 0 -- -- 88
2019-04-18 04:00:00 12.5 5 Oeste 15 Noroeste 0 -- -- 82
2019-04-18 03:00:00 13.1 9 Oeste 18 Oeste 0 -- -- 76
2019-04-18 02:00:00 14.3 10 Oeste 20 Oeste 0 -- -- 69
2019-04-18 01:00:00 14.3 10 Oeste 19 Oeste 0 -- -- 71
2019-04-18 00:00:00 14.5 10 Oeste 30 Oeste 0 -- -- 71
2019-04-17 23:00:00 14.7 16 Oeste 27 Oeste 0 -- -- 74
2019-04-17 22:00:00 13.5 3 Sudeste 12 Oeste 0 -- -- 83
2019-04-17 21:00:00 16 4 Nordeste 18 Oeste 0 -- -- 73
2019-04-17 20:00:00 17.4 4 Sur 26 Noroeste 0 -- -- 72
2019-04-17 19:00:00 18.2 8 Nordeste 25 Nordeste 0 -- -- 64
2019-04-17 18:00:00 20 9 Este 27 Este 0 -- -- 53
2019-04-17 17:00:00 19.6 12 Este 23 Este 0 -- -- 56
2019-04-17 16:00:00 20.6 6 Nordeste 19 Nordeste 0 -- -- 45
2019-04-17 15:00:00 25.3 8 Sur 27 Sudeste 0 -- -- 37
2019-04-17 14:00:00 21.4 15 Este 27 Este 0 -- -- 55
2019-04-17 13:00:00 25.3 11 Este 26 Sudeste 0 -- -- 39
2019-04-17 12:00:00 23.6 14 Sudeste 21 Sudeste 0 -- -- 45
2019-04-17 11:00:00 19.8 9 Este 22 Este 0 -- -- 53
2019-04-17 10:00:00 19 11 Este 30 Este 0 -- -- 53
2019-04-17 09:00:00 16.5 4 Sur 21 Sur 0 -- -- 68
2019-04-17 08:00:00 11.3 8 Oeste 17 Este 0 -- -- 100
2019-04-17 07:00:00 10.3 6 Oeste 15 Sur 0 -- -- 100
2019-04-17 06:00:00 9.6 4 Oeste 9 Oeste 0 -- -- 100
2019-04-17 05:00:00 9.8 0 Calma 15 Sudoeste 0 -- -- 99
2019-04-17 04:00:00 10.6 5 Sudoeste 11 Sudoeste 0 -- -- 99
2019-04-17 03:00:00 10.9 5 Sudoeste 9 Oeste 0 -- -- 99
2019-04-17 02:00:00 10.8 2 Oeste 10 Oeste 0 -- -- 98
2019-04-17 01:00:00 11.2 4 Sudoeste 8 Sudoeste 0 -- -- 98
2019-04-17 00:00:00 11.5 6 Oeste 10 Oeste 0 -- -- 97
2019-04-16 23:00:00 11.8 2 Oeste 7 Nordeste 0 -- -- 96
2019-04-16 22:00:00 12.6 4 Nordeste 16 Nordeste 0 -- -- 94
2019-04-16 21:00:00 12.9 10 Nordeste 23 Nordeste 0 -- -- 93
2019-04-16 20:00:00 13.4 15 Este 25 Nordeste 0 -- -- 90
2019-04-16 19:00:00 13.8 16 Nordeste 26 Nordeste 0 -- -- 88
2019-04-16 18:00:00 14.2 15 Este 25 Este 0 -- -- 86
2019-04-16 17:00:00 15.1 15 Este 28 Este 0 -- -- 81
2019-04-16 16:00:00 15 17 Este 27 Este 0 -- -- 81
2019-04-16 15:00:00 15.5 15 Este 29 Nordeste 0 -- -- 80
2019-04-16 14:00:00 15.2 19 Este 30 Este 0 -- -- 80
2019-04-16 13:00:00 15.2 14 Este 27 Nordeste 0 -- -- 82
2019-04-16 12:00:00 14.4 17 Este 27 Este 0 -- -- 82
2019-04-16 11:00:00 13.8 13 Este 20 Este 0 -- -- 78
2019-04-16 10:00:00 11.9 5 Nordeste 10 Sudoeste 0 -- -- 91
2019-04-16 09:00:00 8.9 7 Sudoeste 15 Sudoeste 0 -- -- 97
2019-04-16 08:00:00 8 9 Sudoeste 16 Sudoeste 0 -- -- 97
2019-04-16 07:00:00 7.7 9 Sudoeste 16 Oeste 0 -- -- 98
2019-04-16 06:00:00 8 10 Sudoeste 15 Oeste 0 -- -- 98
2019-04-16 05:00:00 7.8 4 Sudoeste 15 Sudoeste 0 -- -- 97
2019-04-16 04:00:00 9 10 Oeste 15 Sudoeste 0 -- -- 98
2019-04-16 03:00:00 9.1 9 Oeste 13 Sudoeste 0 -- -- 98
2019-04-16 02:00:00 9.3 6 Sudoeste 9 Oeste 0 -- -- 97
2019-04-16 01:00:00 9.7 5 Sudoeste 9 Oeste 0 -- -- 95
2019-04-16 00:00:00 10.7 3 Sudoeste 10 Sudoeste 0 -- -- 93
2019-04-15 23:00:00 11.9 4 Sudoeste 13 Oeste 0 -- -- 92
2019-04-15 22:00:00 12.2 6 Oeste 22 Sudoeste 0 -- -- 93
2019-04-15 21:00:00 12.5 7 Oeste 22 Sudoeste 0 -- -- 92
2019-04-15 20:00:00 12.4 7 Oeste 33 Oeste 0 -- -- 92
2019-04-15 19:00:00 12.8 11 Oeste 24 Oeste 5.2 -- -- 96
2019-04-15 18:00:00 12.9 4 Sur 15 Oeste 4.4 -- -- 96
2019-04-15 17:00:00 13.7 5 Oeste 21 Oeste 0.6 -- -- 92
2019-04-15 16:00:00 14.2 4 Sudoeste 20 Sudoeste 0.2 -- -- 93
2019-04-15 15:00:00 14.2 8 Sudoeste 20 Oeste 1.4 -- -- 94
2019-04-15 14:00:00 15.6 9 Sudoeste 20 Oeste 1.2 -- -- 96
2019-04-15 13:00:00 16.3 15 Oeste 28 Sudoeste 1.2 -- -- 93
2019-04-15 12:00:00 16.8 20 Oeste 43 Oeste 0.8 -- -- 85
2019-04-15 11:00:00 16.2 2 Nordeste 15 Norte 0 -- -- 88
2019-04-15 10:00:00 15 3 Norte 10 Nordeste 0 -- -- 98
2019-04-15 09:00:00 12.6 5 Oeste 14 Sudeste 0 -- -- 100
2019-04-15 08:00:00 12 3 Sudoeste 10 Sudoeste 0 -- -- 100
2019-04-15 07:00:00 11.7 4 Sudoeste 9 Sudoeste 0 -- -- 100
2019-04-15 06:00:00 11.7 0 Calma 11 Oeste 0 -- -- 99
2019-04-15 05:00:00 11.7 3 Sudoeste 5 Sudoeste 0 -- -- 98
2019-04-15 04:00:00 12.2 4 Oeste 8 Sudoeste 0 -- -- 98
2019-04-15 03:00:00 12.9 5 Norte 13 Este 0 -- -- 96
2019-04-15 02:00:00 13.5 4 Norte 19 Este 0 -- -- 93
2019-04-15 01:00:00 14.1 10 Este 30 Nordeste 0 -- -- 93
2019-04-15 00:00:00 13.5 19 Este 30 Este 0 -- -- 95
2019-04-14 23:00:00 14 15 Este 24 Este 0 -- -- 94
2019-04-14 22:00:00 14.1 9 Nordeste 22 Este 0 -- -- 93
2019-04-14 21:00:00 14 4 Noroeste 14 Nordeste 0 -- -- 91
2019-04-14 20:00:00 14.6 7 Norte 13 Norte 0 -- -- 88
2019-04-14 19:00:00 15.6 6 Noroeste 18 Este 0 -- -- 83
2019-04-14 18:00:00 15.7 13 Nordeste 22 Nordeste 0 -- -- 81
2019-04-14 17:00:00 15.7 9 Nordeste 24 Nordeste 0 -- -- 86
2019-04-14 16:00:00 16.3 8 Nordeste 21 Nordeste 0 -- -- 88
2019-04-14 15:00:00 16.4 9 Nordeste 13 Nordeste 0 -- -- 85
2019-04-14 14:00:00 16.4 7 Nordeste 12 Nordeste 0 -- -- 83
2019-04-14 13:00:00 16.8 6 Nordeste 10 Nordeste 0 -- -- 72
2019-04-14 12:00:00 17.6 4 Este 7 Nordeste 0 -- -- 74
2019-04-14 11:00:00 15.1 0 Calma 4 Este 0 -- -- 84
2019-04-14 10:00:00 14.3 0 Calma 7 Sudoeste 0 -- -- 92
2019-04-14 09:00:00 12.1 6 Sudoeste 10 Sudoeste 0 -- -- 97
2019-04-14 08:00:00 11 3 Sudoeste 8 Sudoeste 0 -- -- 98
2019-04-14 07:00:00 10.9 6 Sudoeste 8 Sudoeste 0 -- -- 99
2019-04-14 06:00:00 10.7 3 Oeste 7 Sudoeste 0 -- -- 99
2019-04-14 05:00:00 11 0 Calma 5 Sudoeste 0 -- -- 98
2019-04-14 04:00:00 12 2 Noroeste 6 Norte 0 -- -- 98
2019-04-14 03:00:00 12.2 3 Nordeste 5 Norte 0 -- -- 98
2019-04-14 02:00:00 12 0 Calma 3 Sudoeste 0 -- -- 98
2019-04-14 01:00:00 12 3 Norte 5 Nordeste 0 -- -- 97
2019-04-14 00:00:00 12.1 0 Calma 4 Oeste 0 -- -- 96
2019-04-13 23:00:00 12.4 0 Calma 5 Norte 0 -- -- 95
2019-04-13 22:00:00 12.7 2 Nordeste 11 Este 0 -- -- 93
2019-04-13 21:00:00 13.1 6 Este 12 Este 0 -- -- 91
2019-04-13 20:00:00 13.4 4 Este 15 Este 0 -- -- 88
2019-04-13 19:00:00 13.6 8 Este 12 Nordeste 0 -- -- 83
2019-04-13 18:00:00 14.2 8 Nordeste 13 Nordeste 0 -- -- 84
2019-04-13 17:00:00 14.8 9 Nordeste 14 Nordeste 0 -- -- 81
2019-04-13 16:00:00 15 9 Este 18 Este 0 -- -- 84
2019-04-13 15:00:00 14.9 10 Este 16 Nordeste 0 -- -- 84
2019-04-13 14:00:00 14.7 9 Nordeste 14 Nordeste 0 -- -- 85
2019-04-13 13:00:00 14.4 11 Nordeste 14 Nordeste 0 -- -- 84
2019-04-13 12:00:00 13.9 8 Este 12 Nordeste 0 -- -- 85
2019-04-13 11:00:00 13.1 6 Nordeste 9 Nordeste 0 -- -- 92
2019-04-13 10:00:00 11.2 0 Calma 4 Sudoeste 0 -- -- 100
2019-04-13 09:00:00 8.8 3 Sudoeste 10 Sudoeste 0 -- -- 100
2019-04-13 08:00:00 6.9 7 Sudoeste 10 Sudoeste 0 -- -- 100
2019-04-13 07:00:00 6.9 4 Sudoeste 10 Sudoeste 0 -- -- 100
2019-04-13 06:00:00 7 3 Oeste 10 Sudoeste 0 -- -- 100
2019-04-13 05:00:00 6.8 6 Sudoeste 10 Sudoeste 0 -- -- 99
2019-04-13 04:00:00 7.2 8 Sudoeste 12 Sudoeste 0 -- -- 100
2019-04-13 03:00:00 7.1 8 Sudoeste 12 Oeste 0 -- -- 98
2019-04-13 02:00:00 7.5 8 Oeste 12 Oeste 0 -- -- 98
2019-04-13 01:00:00 7.9 8 Sudoeste 11 Sudoeste 0 -- -- 97
2019-04-13 00:00:00 8.3 8 Sudoeste 13 Sudoeste 0 -- -- 95
2019-04-12 23:00:00 9.1 2 Oeste 15 Este 0 -- -- 90
2019-04-12 22:00:00 11 6 Este 22 Este 0 -- -- 86
2019-04-12 21:00:00 11.8 14 Este 33 Este 0 -- -- 86
2019-04-12 20:00:00 12.7 19 Este 36 Este 0 -- -- 83
2019-04-12 19:00:00 13.2 22 Este 35 Este 0 -- -- 79
2019-04-12 18:00:00 13.7 22 Este 33 Este 0 -- -- 80
2019-04-12 17:00:00 14 19 Este 31 Este 0 -- -- 81
2019-04-12 16:00:00 14.1 18 Este 30 Nordeste 0 -- -- 81
2019-04-12 15:00:00 14 18 Este 27 Este 0 -- -- 77
2019-04-12 14:00:00 14.1 14 Este 23 Nordeste 0 -- -- 75
2019-04-12 13:00:00 13.8 9 Este 24 Este 0 -- -- 78
2019-04-12 12:00:00 13 15 Nordeste 22 Este 0 -- -- 79
2019-04-12 11:00:00 12.5 8 Nordeste 14 Nordeste 0 -- -- 83
2019-04-12 10:00:00 9.8 3 Nordeste 13 Oeste 0 -- -- 98
2019-04-12 09:00:00 7.1 8 Sudoeste 15 Sudoeste 0 -- -- 100
2019-04-12 08:00:00 5.9 12 Sudoeste 15 Sudoeste 0 -- -- 100
2019-04-12 07:00:00 5.7 8 Sudoeste 13 Oeste 0 -- -- 99
2019-04-12 06:00:00 6.2 9 Sudoeste 15 Oeste 0 -- -- 100
2019-04-12 05:00:00 6.9 10 Oeste 15 Oeste 0 -- -- 100
2019-04-12 04:00:00 6.9 7 Sudoeste 15 Oeste 0 -- -- 100
2019-04-12 03:00:00 7.2 7 Sudoeste 14 Sudoeste 0 -- -- 100
2019-04-12 02:00:00 7.6 6 Sudoeste 14 Sudoeste 0 -- -- 100
2019-04-12 01:00:00 7.9 6 Sudoeste 8 Oeste 0 -- -- 100
2019-04-12 00:00:00 7.8 6 Sudoeste 8 Sudoeste 0 -- -- 98
2019-04-11 23:00:00 8.2 3 Oeste 6 Oeste 0 -- -- 97
2019-04-11 22:00:00 8.2 3 Oeste 4 Noroeste 0 -- -- 95
2019-04-11 21:00:00 10.1 2 Noroeste 6 Sudoeste 0 -- -- 91
2019-04-11 20:00:00 12.2 5 Oeste 10 Sudoeste 0 -- -- 84
2019-04-11 19:00:00 12.8 4 Oeste 11 Sudoeste 0 -- -- 82
2019-04-11 18:00:00 12.8 7 Oeste 17 Oeste 0 -- -- 82
2019-04-11 17:00:00 12.5 5 Oeste 14 Sudoeste 0 -- -- 87
2019-04-11 16:00:00 11.8 9 Sudoeste 19 Sudoeste 0.2 -- -- 88
2019-04-11 15:00:00 12 8 Oeste 25 Sudoeste 0 -- -- 84
2019-04-11 14:00:00 12.4 14 Oeste 26 Oeste 0 -- -- 79
2019-04-11 13:00:00 12.7 13 Sudoeste 24 Oeste 0 -- -- 78
2019-04-11 12:00:00 11.7 10 Sudoeste 21 Sudoeste 0 -- -- 82
2019-04-11 11:00:00 11.8 9 Sudoeste 18 Sudoeste 0 -- -- 83
2019-04-11 10:00:00 10.6 7 Oeste 14 Sudoeste 0 -- -- 86
2019-04-11 09:00:00 9.6 7 Oeste 13 Oeste 0 -- -- 89
2019-04-11 08:00:00 8.9 8 Oeste 15 Oeste 0 -- -- 91
2019-04-11 07:00:00 9.1 7 Oeste 15 Oeste 0.2 -- -- 90
2019-04-11 06:00:00 9.5 9 Oeste 17 Oeste 0 -- -- 89
2019-04-11 05:00:00 9.5 9 Oeste 18 Oeste 0 -- -- 91
2019-04-11 04:00:00 9.2 11 Oeste 18 Oeste 0 -- -- 93
2019-04-11 03:00:00 8.9 9 Oeste 16 Oeste 0 -- -- 95
2019-04-11 02:00:00 9 9 Oeste 16 Sudoeste 0 -- -- 96
2019-04-11 01:00:00 9 8 Oeste 13 Oeste 0 -- -- 96
2019-04-11 00:00:00 9.4 7 Sudoeste 13 Oeste 0 -- -- 94
2019-04-10 23:00:00 10.1 6 Sudoeste 13 Oeste 0.8 -- -- 93
2019-04-10 22:00:00 10.1 4 Oeste 10 Oeste 0 -- -- 90
2019-04-10 21:00:00 10.2 4 Oeste 11 Oeste 0 -- -- 88
2019-04-10 20:00:00 13.1 4 Sudoeste 16 Oeste 0 -- -- 79
2019-04-10 19:00:00 13.3 4 Nordeste 16 Oeste 0 -- -- 78
2019-04-10 18:00:00 12.9 9 Norte 18 Norte 0 -- -- 84
2019-04-10 17:00:00 13.4 7 Norte 15 Norte 0 -- -- 82
2019-04-10 16:00:00 13.6 5 Norte 14 Nordeste 0 -- -- 82
2019-04-10 15:00:00 13.2 8 Norte 14 Norte 0 -- -- 85
2019-04-10 14:00:00 12.5 7 Norte 17 Nordeste 0 -- -- 90
2019-04-10 13:00:00 12.1 9 Nordeste 15 Norte 0.2 -- -- 95
2019-04-10 12:00:00 11.5 4 Nordeste 20 Oeste 0.2 -- -- 95
2019-04-10 11:00:00 9.7 10 Oeste 21 Oeste 3.2 -- -- 94
2019-04-10 10:00:00 10 14 Oeste 26 Sudoeste 1 -- -- 88
2019-04-10 09:00:00 9.5 10 Oeste 23 Oeste 1.6 -- -- 90
2019-04-10 08:00:00 8.8 7 Sudoeste 15 Oeste 2.8 -- -- 93
2019-04-10 07:00:00 8.2 3 Sudoeste 8 Sudoeste 2.2 -- -- 95
2019-04-10 06:00:00 8.6 2 Oeste 18 Oeste 3 -- -- 91
2019-04-10 05:00:00 9.4 10 Oeste 18 Oeste 0.2 -- -- 83
2019-04-10 04:00:00 9.5 8 Oeste 21 Sudoeste 0.2 -- -- 84
2019-04-10 03:00:00 9.3 6 Oeste 12 Sudoeste 0 -- -- 88
2019-04-10 02:00:00 8.1 6 Sudoeste 12 Oeste 0 -- -- 93
2019-04-10 01:00:00 8.8 5 Sudoeste 14 Oeste 0 -- -- 91
2019-04-10 00:00:00 9.6 6 Oeste 11 Oeste 0 -- -- 90
2019-04-09 23:00:00 10.5 3 Oeste 22 Oeste 0.4 -- -- 89
2019-04-09 22:00:00 11.4 6 Sudoeste 15 Oeste 0 -- -- 90
2019-04-09 21:00:00 12 3 Nordeste 23 Este 0 -- -- 88
2019-04-09 20:00:00 12.6 13 Este 26 Este 0.2 -- -- 82
2019-04-09 19:00:00 13.4 16 Este 26 Este 0 -- -- 78
2019-04-09 18:00:00 14 13 Este 21 Nordeste 0 -- -- 75
2019-04-09 17:00:00 14.8 11 Este 20 Este 0 -- -- 75
2019-04-09 16:00:00 14 10 Nordeste 15 Este 0 -- -- 76
2019-04-09 15:00:00 13.9 7 Nordeste 12 Este 0 -- -- 74
2019-04-09 14:00:00 13.1 7 Nordeste 16 Norte 0 -- -- 79
2019-04-09 13:00:00 14.2 9 Norte 16 Nordeste 0 -- -- 71
2019-04-09 12:00:00 13.8 7 Noroeste 18 Sudoeste 0 -- -- 74
2019-04-09 11:00:00 11.6 2 Sudoeste 6 Sur 0 -- -- 87
2019-04-09 10:00:00 9.8 5 Oeste 15 Oeste 0 -- -- 89
2019-04-09 09:00:00 9 8 Sudoeste 14 Oeste 0 -- -- 90
2019-04-09 08:00:00 7.3 5 Sudoeste 13 Sudoeste 0 -- -- 92
2019-04-09 07:00:00 8 9 Sudoeste 16 Sudoeste 0 -- -- 91
2019-04-09 06:00:00 7 6 Sudoeste 16 Oeste 0 -- -- 93
2019-04-09 05:00:00 7.8 13 Sudoeste 15 Sudoeste 0 -- -- 93
2019-04-09 04:00:00 8.5 8 Sudoeste 15 Sudoeste 0 -- -- 91
2019-04-09 03:00:00 8.2 9 Oeste 17 Sudoeste 0 -- -- 92
2019-04-09 02:00:00 7.6 9 Sudoeste 18 Oeste 0 -- -- 92
2019-04-09 01:00:00 7.7 9 Oeste 15 Sudoeste 0 -- -- 92
2019-04-09 00:00:00 10.5 8 Este 24 Este 0 -- -- 80
2019-04-08 23:00:00 10.2 12 Este 19 Este 0 -- -- 86
2019-04-08 22:00:00 10 10 Este 30 Nordeste 0.6 -- -- 90
2019-04-08 21:00:00 12 11 Este 28 Este 1.2 -- -- 86
2019-04-08 20:00:00 12.5 18 Este 31 Este 0 -- -- 83
2019-04-08 19:00:00 13.6 18 Este 31 Este 0 -- -- 79
2019-04-08 18:00:00 14 18 Este 30 Este 0 -- -- 78
2019-04-08 17:00:00 15.3 13 Este 23 Este 0 -- -- 75
2019-04-08 16:00:00 15 11 Este 18 Este 0 -- -- 71
2019-04-08 15:00:00 14.7 8 Este 14 Este 0 -- -- 80
2019-04-08 14:00:00 14.7 6 Nordeste 16 Nordeste 0 -- -- 77
2019-04-08 13:00:00 15.3 8 Este 12 Este 0 -- -- 79
2019-04-08 12:00:00 14.6 8 Nordeste 10 Nordeste 0 -- -- 77
2019-04-08 11:00:00 13.5 5 Este 8 Este 0 -- -- 87
2019-04-08 10:00:00 11.6 5 Sudoeste 11 Oeste 0 -- -- 95
2019-04-08 09:00:00 10.7 5 Sudoeste 12 Oeste 0 -- -- 95
2019-04-08 08:00:00 10.5 7 Oeste 13 Oeste 0.4 -- -- 95
2019-04-08 07:00:00 10.7 6 Oeste 15 Sudoeste 0.4 -- -- 92
2019-04-08 06:00:00 10.5 6 Oeste 33 Sudoeste 0 -- -- 94
2019-04-08 05:00:00 9.1 10 Sudoeste 23 Oeste 0 -- -- 98
2019-04-08 04:00:00 8.5 8 Oeste 15 Oeste 0 -- -- 97
2019-04-08 03:00:00 8.9 5 Oeste 12 Oeste 0 -- -- 96
2019-04-08 02:00:00 9.2 8 Sudoeste 13 Oeste 0.2 -- -- 95
2019-04-08 01:00:00 9.1 6 Oeste 12 Oeste 0 -- -- 95
2019-04-08 00:00:00 9.3 8 Sudoeste 14 Norte 0 -- -- 93
2019-04-07 23:00:00 10 4 Noroeste 27 Este 0 -- -- 90
2019-04-07 22:00:00 10.1 4 Sudeste 9 Este 0.4 -- -- 91
2019-04-07 21:00:00 11 5 Este 21 Este 0.6 -- -- 84
2019-04-07 20:00:00 11.8 13 Este 21 Este 0 -- -- 77
2019-04-07 19:00:00 12.3 11 Este 21 Este 0 -- -- 72
2019-04-07 18:00:00 12.9 11 Este 21 Este 0 -- -- 69
2019-04-07 17:00:00 14 12 Este 22 Este 0 -- -- 66
2019-04-07 16:00:00 14.4 6 Nordeste 15 Nordeste 0 -- -- 60
2019-04-07 15:00:00 13.7 10 Nordeste 20 Norte 0 -- -- 63
2019-04-07 14:00:00 13.8 14 Nordeste 22 Nordeste 0 -- -- 63
2019-04-07 13:00:00 15.4 6 Sudoeste 22 Sudoeste 0 -- -- 47
2019-04-07 12:00:00 13.8 15 Sudoeste 30 Sudoeste 0 -- -- 53
2019-04-07 11:00:00 11.5 11 Sudoeste 21 Sudoeste 0 -- -- 57
2019-04-07 10:00:00 10.8 9 Oeste 20 Sudoeste 0 -- -- 62
2019-04-07 09:00:00 9.1 8 Oeste 22 Oeste 0 -- -- 68
2019-04-07 08:00:00 8.6 9 Oeste 22 Oeste 0 -- -- 74
2019-04-07 07:00:00 8.5 11 Oeste 21 Sudoeste 0 -- -- 78
2019-04-07 06:00:00 8 9 Oeste 19 Oeste 0 -- -- 87
2019-04-07 05:00:00 7.2 5 Sudoeste 17 Oeste 0.2 -- -- 93
2019-04-07 04:00:00 7.5 8 Oeste 22 Sudoeste 0 -- -- 90
2019-04-07 03:00:00 7.4 9 Oeste 18 Oeste 0.6 -- -- 92
2019-04-07 02:00:00 7 9 Oeste 21 Oeste 2 -- -- 94
2019-04-07 01:00:00 7.1 9 Oeste 19 Oeste 3 -- -- 92
2019-04-07 00:00:00 7.1 11 Sudoeste 31 Sudoeste 1.6 -- -- 90
2019-04-06 23:00:00 7.3 14 Sudoeste 36 Sudoeste 0.2 -- -- 87
2019-04-06 22:00:00 7.8 18 Sudoeste 35 Sudoeste 0 -- -- 84
2019-04-06 21:00:00 7.9 12 Sudoeste 37 Sudoeste 0.4 -- -- 87
2019-04-06 20:00:00 8.9 16 Sudoeste 49 Oeste 1.2 -- -- 88
2019-04-06 19:00:00 10.2 4 Oeste 23 Oeste 0.4 -- -- 83
2019-04-06 18:00:00 10.8 10 Oeste 31 Oeste 0 -- -- 76
2019-04-06 17:00:00 10.7 8 Sudoeste 36 Sudoeste 0.2 -- -- 80
2019-04-06 16:00:00 12.5 11 Oeste 30 Sudoeste 0 -- -- 70
2019-04-06 15:00:00 13.3 7 Sudeste 19 Nordeste 1.8 -- -- 77
2019-04-06 14:00:00 10.9 13 Este 21 Nordeste 1.4 -- -- 81
2019-04-06 13:00:00 11.8 9 Este 28 Nordeste 0 -- -- 76
2019-04-06 12:00:00 13.7 18 Este 30 Este 0 -- -- 71
2019-04-06 11:00:00 12.2 17 Este 27 Nordeste 0 -- -- 69
2019-04-06 10:00:00 7.6 6 Sudoeste 15 Sudoeste 0 -- -- 94
2019-04-06 09:00:00 5.4 6 Sudoeste 14 Sudoeste 0 -- -- 95
2019-04-06 08:00:00 4.9 6 Sudoeste 15 Sudoeste 0 -- -- 96
2019-04-06 07:00:00 4.8 4 Oeste 18 Sudoeste 0 -- -- 96
2019-04-06 06:00:00 4.8 8 Oeste 17 Oeste 0 -- -- 96
2019-04-06 05:00:00 4.8 8 Sudoeste 16 Sudoeste 0 -- -- 96
2019-04-06 04:00:00 5.1 6 Oeste 17 Oeste 0 -- -- 96
2019-04-06 03:00:00 5.4 10 Oeste 16 Sudoeste 0 -- -- 97
2019-04-06 02:00:00 5.1 8 Sudoeste 15 Sudoeste 0 -- -- 96
2019-04-06 01:00:00 5.8 9 Oeste 17 Sudoeste 0 -- -- 97
2019-04-06 00:00:00 6.4 9 Sudoeste 15 Oeste 0 -- -- 96
2019-04-05 23:00:00 6.9 9 Oeste 14 Oeste 0 -- -- 97
2019-04-05 22:00:00 6.9 2 Oeste 10 Sudoeste 0 -- -- 95
2019-04-05 21:00:00 7.5 2 Oeste 30 Oeste 3.2 -- -- 90
2019-04-05 20:00:00 10.9 4 Sudeste 13 Este 0 -- -- 81
2019-04-05 19:00:00 11.2 5 Este 21 Este 0 -- -- 77
2019-04-05 18:00:00 11.9 12 Este 23 Este 0 -- -- 73
2019-04-05 17:00:00 11.6 12 Este 26 Este 0 -- -- 73
2019-04-05 16:00:00 12.2 18 Este 31 Este 0 -- -- 71
2019-04-05 15:00:00 13.2 15 Este 25 Este 0 -- -- 71
2019-04-05 14:00:00 11.8 8 Este 14 Nordeste 0 -- -- 71
2019-04-05 13:00:00 12 10 Norte 14 Nordeste 0 -- -- 67
2019-04-05 12:00:00 12.3 6 Nordeste 14 Nordeste 0 -- -- 67
2019-04-05 11:00:00 9.9 4 Sudoeste 10 Sudoeste 0 -- -- 87
2019-04-05 10:00:00 9.1 8 Sudoeste 12 Sudoeste 0 -- -- 93
2019-04-05 09:00:00 7.7 7 Oeste 12 Oeste 0 -- -- 98
2019-04-05 08:00:00 7.8 3 Este 11 Oeste 0.2 -- -- 96
2019-04-05 07:00:00 7.7 7 Oeste 11 Oeste 0 -- -- 97
2019-04-05 06:00:00 7.2 5 Sudoeste 12 Sudoeste 0 -- -- 97
2019-04-05 05:00:00 7.3 6 Oeste 14 Oeste 0 -- -- 96
2019-04-05 04:00:00 7.8 8 Oeste 12 Sudoeste 0 -- -- 95
2019-04-05 03:00:00 8.3 4 Sudoeste 10 Oeste 0.4 -- -- 92
2019-04-05 02:00:00 8.8 6 Oeste 17 Sudoeste 0.2 -- -- 89
2019-04-05 01:00:00 8.7 10 Sudoeste 15 Sudoeste 0 -- -- 90
2019-04-05 00:00:00 8.8 4 Sudoeste 11 Sudoeste 0 -- -- 89
2019-04-04 23:00:00 9.5 0 Calma 7 Sur 0.2 -- -- 86
2019-04-04 22:00:00 11.2 6 Sudoeste 14 Sudoeste 0 -- -- 70
2019-04-04 21:00:00 11.9 9 Este 15 Este 0 -- -- 69
2019-04-04 20:00:00 12.1 2 Norte 19 Sudoeste 0 -- -- 68
2019-04-04 19:00:00 12.9 6 Sudoeste 15 Sur 0 -- -- 55
2019-04-04 18:00:00 12.8 5 Norte 16 Este 0 -- -- 66
2019-04-04 17:00:00 12.2 8 Este 21 Este 0 -- -- 66
2019-04-04 16:00:00 11.9 12 Este 21 Este 0 -- -- 66
2019-04-04 15:00:00 12.4 10 Nordeste 15 Sudoeste 0 -- -- 62
2019-04-04 14:00:00 15.1 8 Sudoeste 25 Oeste 0 -- -- 40
2019-04-04 13:00:00 13.8 14 Sudoeste 30 Sudoeste 0 -- -- 48
2019-04-04 12:00:00 12.7 13 Sudoeste 29 Oeste 0 -- -- 54
2019-04-04 11:00:00 10.9 15 Sudoeste 29 Sudoeste 0 -- -- 61
2019-04-04 10:00:00 8.9 8 Sudoeste 17 Oeste 0 -- -- 68
2019-04-04 09:00:00 7.1 11 Oeste 21 Sudoeste 0 -- -- 73
2019-04-04 08:00:00 6.1 11 Oeste 26 Sudoeste 0 -- -- 77
2019-04-04 07:00:00 6 12 Oeste 26 Sudoeste 0 -- -- 80
2019-04-04 06:00:00 5.8 14 Sudoeste 23 Sudoeste 0.2 -- -- 85
2019-04-04 05:00:00 5.5 11 Sudoeste 35 Sudoeste 0 -- -- 84
2019-04-04 04:00:00 5.6 17 Oeste 34 Oeste 0 -- -- 84
2019-04-04 03:00:00 5.2 16 Sudoeste 39 Sudoeste 0.2 -- -- 87
2019-04-04 02:00:00 5.4 19 Sudoeste 33 Sudoeste 0 -- -- 87
2019-04-04 01:00:00 5.6 13 Sudoeste 30 Oeste 0 -- -- 89
2019-04-04 00:00:00 5.2 10 Oeste 27 Sudoeste 0.2 -- -- 92
2019-04-03 23:00:00 5 13 Oeste 28 Sudoeste 0.4 -- -- 92
2019-04-03 22:00:00 5.1 11 Oeste 27 Sudoeste 2.8 -- -- 92
2019-04-03 21:00:00 6.4 14 Oeste 28 Sudoeste 0.4 -- -- 86
2019-04-03 20:00:00 7.4 8 Sudoeste 27 Sudoeste 0.2 -- -- 84
2019-04-03 19:00:00 6.5 16 Sudoeste 37 Sudoeste 1 -- -- 87
2019-04-03 18:00:00 9.4 14 Oeste 35 Sudoeste 0 -- -- 69
2019-04-03 17:00:00 8.7 13 Sudoeste 37 Oeste 0.6 -- -- 86
2019-04-03 16:00:00 11.1 10 Oeste 36 Sudoeste 2.2 -- -- 75
2019-04-03 15:00:00 9.6 11 Noroeste 47 Oeste 0.4 -- -- 72
2019-04-03 14:00:00 9.2 11 Oeste 28 Oeste 0 -- -- 85
2019-04-03 13:00:00 6.1 12 Oeste 29 Sudoeste 4.8 -- -- 92
2019-04-03 12:00:00 7.1 16 Oeste 37 Oeste 0.2 -- -- 81
2019-04-03 11:00:00 7.6 14 Sudoeste 27 Oeste 1.4 -- -- 92
2019-04-03 10:00:00 7.3 14 Oeste 36 Sudoeste 0.6 -- -- 92
2019-04-03 09:00:00 7 10 Oeste 25 Oeste 0.8 -- -- 94
2019-04-03 08:00:00 6.7 13 Oeste 31 Sudoeste 2.8 -- -- 92
2019-04-03 07:00:00 7.1 8 Oeste 27 Sudoeste 0.2 -- -- 91
2019-04-03 06:00:00 7.4 15 Sudoeste 31 Sudoeste 1 -- -- 91
2019-04-03 05:00:00 7.7 8 Sudoeste 34 Sudoeste 0.8 -- -- 92
2019-04-03 04:00:00 8.6 14 Oeste 30 Sudoeste 0.2 -- -- 86
2019-04-03 03:00:00 9.3 9 Oeste 21 Sudoeste 0 -- -- 84
2019-04-03 02:00:00 9.1 9 Sudoeste 18 Oeste 0.2 -- -- 89
2019-04-03 01:00:00 9.5 7 Sudoeste 16 Oeste 0 -- -- 87
2019-04-03 00:00:00 9.3 7 Sudoeste 21 Sudoeste 0.2 -- -- 92
2019-04-02 23:00:00 9.9 7 Oeste 15 Oeste 0 -- -- 90
2019-04-02 22:00:00 9.8 4 Sudoeste 15 Sudoeste 0.2 -- -- 93
2019-04-02 21:00:00 10.4 6 Oeste 19 Sudoeste 0.2 -- -- 88
2019-04-02 20:00:00 11.5 7 Oeste 17 Sudoeste 0 -- -- 77
2019-04-02 19:00:00 11.6 8 Oeste 20 Oeste 0 -- -- 83
2019-04-02 18:00:00 12.2 7 Sudoeste 20 Sudoeste 0 -- -- 82
2019-04-02 17:00:00 13.2 10 Sudoeste 25 Oeste 0 -- -- 77
2019-04-02 16:00:00 14.2 11 Oeste 33 Oeste 0 -- -- 71
2019-04-02 15:00:00 14.8 9 Oeste 23 Oeste 0 -- -- 70
2019-04-02 14:00:00 15.4 14 Oeste 27 Oeste 0 -- -- 65
2019-04-02 13:00:00 14.3 9 Sudoeste 24 Oeste 0 -- -- 78
2019-04-02 12:00:00 12.9 8 Oeste 19 Oeste 0 -- -- 83
2019-04-02 11:00:00 12.2 6 Oeste 14 Oeste 0 -- -- 88
2019-04-02 10:00:00 11.5 6 Sudoeste 12 Sudoeste 0 -- -- 94
2019-04-02 09:00:00 10.7 6 Sudoeste 12 Oeste 0 -- -- 95
2019-04-02 08:00:00 10.3 6 Oeste 14 Oeste 0 -- -- 96
2019-04-02 07:00:00 9.5 8 Oeste 19 Oeste 0 -- -- 97
2019-04-02 06:00:00 9.1 9 Oeste 18 Sudoeste 0 -- -- 98
2019-04-02 05:00:00 7.7 8 Sudoeste 12 Oeste 0 -- -- 98
2019-04-02 04:00:00 7.6 9 Sudoeste 13 Sudoeste 0 -- -- 97
2019-04-02 03:00:00 8.8 10 Sudoeste 15 Sudoeste 0 -- -- 98
2019-04-02 02:00:00 8.5 8 Sudoeste 13 Sudoeste 0 -- -- 98
2019-04-02 01:00:00 8.9 8 Sudoeste 12 Sudoeste 0 -- -- 98
2019-04-02 00:00:00 9.6 8 Sudoeste 11 Oeste 0 -- -- 98
2019-04-01 23:00:00 10.1 6 Oeste 9 Oeste 0 -- -- 98
2019-04-01 22:00:00 10.5 3 Sudoeste 5 Sudoeste 0 -- -- 96
2019-04-01 21:00:00 11.5 0 Calma 8 Nordeste 0 -- -- 93
2019-04-01 20:00:00 13.7 5 Nordeste 8 Norte 0 -- -- 91
2019-04-01 19:00:00 14.4 5 Norte 9 Nordeste 0 -- -- 89
2019-04-01 18:00:00 14.6 7 Norte 12 Nordeste 0 -- -- 88
2019-04-01 17:00:00 14.7 8 Nordeste 16 Norte 0 -- -- 88
2019-04-01 16:00:00 14.9 12 Norte 17 Nordeste 0 -- -- 83
2019-04-01 15:00:00 15 6 Nordeste 14 Nordeste 0 -- -- 78
2019-04-01 14:00:00 14.1 10 Nordeste 12 Norte 0 -- -- 87
2019-04-01 13:00:00 14.3 9 Nordeste 12 Nordeste 0 -- -- 85
2019-04-01 12:00:00 13.9 7 Nordeste 10 Norte 0 -- -- 86
2019-04-01 11:00:00 12.8 2 Sudeste 13 Sudoeste 0 -- -- 94
2019-04-01 10:00:00 9.3 9 Sudoeste 12 Sudoeste 0 -- -- 94
2019-04-01 09:00:00 7.7 9 Sudoeste 14 Sudoeste 0 -- -- 95
2019-04-01 08:00:00 6.9 9 Sudoeste 16 Oeste 0 -- -- 97
2019-04-01 07:00:00 6.4 9 Sudoeste 14 Sudoeste 0 -- -- 97
2019-04-01 06:00:00 7.6 10 Sudoeste 17 Oeste 0 -- -- 98
2019-04-01 05:00:00 7.7 10 Oeste 14 Sudoeste 0 -- -- 99
2019-04-01 04:00:00 7 3 Sudoeste 16 Sudoeste 0 -- -- 98
2019-04-01 03:00:00 7.2 9 Sudoeste 13 Sudoeste 0 -- -- 99
2019-04-01 02:00:00 7.1 0 Calma 6 Nordeste 0 -- -- 97
2019-04-01 01:00:00 8.4 0 Calma 4 Norte 0 -- -- 95
2019-04-01 00:00:00 11 2 Norte 10 Nordeste 0 -- -- 92
2019-03-31 23:00:00 11.8 3 Norte 15 Nordeste 0 -- -- 93
2019-03-31 22:00:00 13.1 10 Este 21 Nordeste 0 -- -- 90
2019-03-31 21:00:00 13.3 5 Nordeste 14 Nordeste 0 -- -- 84
2019-03-31 20:00:00 14.4 5 Norte 10 Norte 0 -- -- 84
2019-03-31 19:00:00 15.2 5 Norte 12 Norte 0 -- -- 81
2019-03-31 18:00:00 15.2 5 Norte 9 Este 0 -- -- 85
2019-03-31 17:00:00 15.2 6 Nordeste 14 Este 0 -- -- 86
2019-03-31 16:00:00 15 9 Nordeste 15 Este 0 -- -- 83
2019-03-31 15:00:00 14.8 9 Nordeste 13 Nordeste 0 -- -- 87
2019-03-31 14:00:00 14.9 8 Nordeste 14 Nordeste 0 -- -- 87
2019-03-31 13:00:00 14.4 7 Nordeste 12 Norte 0 -- -- 90
2019-03-31 12:00:00 14.1 5 Nordeste 10 Nordeste 0 -- -- 91
2019-03-31 11:00:00 13.4 4 Nordeste 12 Sudoeste 0 -- -- 96
2019-03-31 10:00:00 11.8 8 Sudoeste 12 Sudoeste 0 -- -- 99
2019-03-31 09:00:00 11.1 3 Norte 8 Nordeste 0 -- -- 100
2019-03-31 08:00:00 10.1 5 Sudoeste 9 Noroeste 0 -- -- 99
2019-03-31 07:00:00 10.8 5 Oeste 9 Oeste 0 -- -- 100
2019-03-31 06:00:00 10.7 4 Sudoeste 9 Sudoeste 0 -- -- 99
2019-03-31 05:00:00 11 0 Calma 8 Sudoeste 0 -- -- 100
2019-03-31 03:00:00 11.5 5 Norte 10 Nordeste 0 -- -- 100
2019-03-31 01:00:00 9.8 0 Calma 7 Sudoeste 0 -- -- 98
2019-03-31 00:00:00 10.7 4 Oeste 9 Sudoeste 0 -- -- 97
2019-03-30 23:00:00 11.4 3 Oeste 8 Nordeste 0 -- -- 96
2019-03-30 22:00:00 10.8 0 Calma 7 Oeste 0 -- -- 96
2019-03-30 21:00:00 11.5 3 Noroeste 5 Oeste 0 -- -- 95
2019-03-30 20:00:00 12.2 0 Calma 9 Nordeste 0 -- -- 93
2019-03-30 19:00:00 12.8 3 Norte 6 Nordeste 0 -- -- 92
2019-03-30 18:00:00 13.3 3 Este 8 Este 0 -- -- 92
2019-03-30 17:00:00 13.4 5 Este 14 Este 0 -- -- 93
2019-03-30 16:00:00 13.9 8 Nordeste 13 Nordeste 0 -- -- 89
2019-03-30 15:00:00 13.7 7 Nordeste 13 Nordeste 0 -- -- 90
2019-03-30 14:00:00 14.3 8 Nordeste 12 Nordeste 0 -- -- 88
2019-03-30 13:00:00 13.7 7 Nordeste 12 Nordeste 0 -- -- 89
2019-03-30 12:00:00 13.6 7 Nordeste 11 Nordeste 0 -- -- 93
2019-03-30 11:00:00 12.8 6 Norte 10 Norte 0 -- -- 99
2019-03-30 10:00:00 11.7 3 Este 9 Sudoeste 0 -- -- 100
2019-03-30 09:00:00 9.5 8 Sudoeste 11 Sudoeste 0 -- -- 100
2019-03-30 08:00:00 7.8 6 Oeste 10 Sudoeste 0 -- -- 100
2019-03-30 07:00:00 6.8 6 Sudoeste 12 Sudoeste 0 -- -- 100
2019-03-30 06:00:00 6.6 6 Oeste 11 Sudoeste 0 -- -- 100
2019-03-30 05:00:00 7.1 6 Sudoeste 10 Sudoeste 0 -- -- 100
2019-03-30 04:00:00 7.2 6 Sudoeste 10 Oeste 0 -- -- 100
2019-03-30 03:00:00 7.4 6 Sudoeste 11 Oeste 0 -- -- 100
2019-03-30 02:00:00 7.9 7 Sudoeste 12 Sudoeste 0 -- -- 100
2019-03-30 01:00:00 8.3 6 Oeste 13 Oeste 0 -- -- 100
2019-03-30 00:00:00 8.4 5 Oeste 10 Sudoeste 0 -- -- 99
2019-03-29 23:00:00 8.6 5 Sudoeste 8 Sudoeste 0 -- -- 98
2019-03-29 22:00:00 9 0 Calma 5 Sudoeste 0 -- -- 97
2019-03-29 21:00:00 9.6 2 Oeste 5 Este 0 -- -- 95
2019-03-29 20:00:00 11.5 4 Este 12 Nordeste 0 -- -- 93
2019-03-29 19:00:00 12.2 6 Este 13 Nordeste 0 -- -- 91
2019-03-29 18:00:00 13.3 8 Este 16 Este 0 -- -- 88
2019-03-29 17:00:00 13.7 9 Nordeste 15 Este 0 -- -- 86
2019-03-29 16:00:00 14.1 9 Este 17 Este 0 -- -- 86
2019-03-29 15:00:00 13.8 12 Nordeste 18 Nordeste 0 -- -- 81
2019-03-29 14:00:00 13.9 9 Nordeste 16 Este 0 -- -- 81
2019-03-29 13:00:00 13.6 10 Nordeste 19 Nordeste 0 -- -- 84
2019-03-29 12:00:00 13.3 10 Este 16 Este 0 -- -- 85
2019-03-29 11:00:00 12.4 9 Norte 14 Nordeste 0 -- -- 87
2019-03-29 10:00:00 11.7 9 Norte 15 Norte 0 -- -- 90
2019-03-29 09:00:00 8.3 5 Sudoeste 12 Sudoeste 0 -- -- 98
2019-03-29 08:00:00 5.5 9 Sudoeste 13 Sudoeste 0 -- -- 98
2019-03-29 07:00:00 5.3 8 Sudoeste 13 Sudoeste 0 -- -- 96
2019-03-29 06:00:00 5.9 9 Sudoeste 15 Oeste 0 -- -- 96
2019-03-29 05:00:00 6.3 8 Oeste 13 Sudoeste 0 -- -- 94
2019-03-29 04:00:00 6.5 3 Sudoeste 14 Este 0 -- -- 89
2019-03-29 03:00:00 9.5 8 Este 18 Este 0 -- -- 91
2019-03-29 02:00:00 9.8 9 Este 20 Este 0 -- -- 90
2019-03-29 01:00:00 9.9 10 Este 17 Este 0 -- -- 91
2019-03-29 00:00:00 10.4 12 Este 20 Este 0 -- -- 92
2019-03-28 23:00:00 10.7 13 Este 25 Este 0 -- -- 90
2019-03-28 22:00:00 10.7 15 Este 26 Este 0 -- -- 89
2019-03-28 21:00:00 11.3 19 Este 33 Este 0 -- -- 87
2019-03-28 20:00:00 11.5 20 Este 35 Nordeste 0 -- -- 87
2019-03-28 19:00:00 11.9 23 Este 36 Este 0 -- -- 85
2019-03-28 18:00:00 12.7 22 Este 35 Este 0 -- -- 82
2019-03-28 17:00:00 13.3 19 Este 33 Este 0 -- -- 81
2019-03-28 16:00:00 13.8 16 Este 29 Este 0 -- -- 78
2019-03-28 15:00:00 14 15 Este 31 Nordeste 0 -- -- 79
2019-03-28 14:00:00 13.7 18 Nordeste 26 Este 0 -- -- 81
2019-03-28 13:00:00 14.2 14 Este 23 Este 0 -- -- 79
2019-03-28 12:00:00 13.8 14 Este 21 Este 0 -- -- 78
2019-03-28 11:00:00 13 11 Nordeste 19 Nordeste 0 -- -- 77
2019-03-28 10:00:00 11.8 8 Nordeste 15 Nordeste 0 -- -- 84
2019-03-28 09:00:00 7 0 Calma 5 Sudoeste 0 -- -- 99
2019-03-28 08:00:00 3.4 2 Oeste 6 Sudoeste 0 -- -- 98
2019-03-28 07:00:00 3.4 3 Sudoeste 10 Sudoeste 0 -- -- 96
2019-03-28 06:00:00 3.7 4 Sudoeste 8 Sudoeste 0 -- -- 96
2019-03-28 05:00:00 3.8 6 Sudoeste 9 Sudoeste 0 -- -- 94
2019-03-28 04:00:00 4.2 3 Sudoeste 8 Sudoeste 0 -- -- 91
2019-03-28 03:00:00 7.7 3 Este 9 Nordeste 0 -- -- 83
2019-03-28 02:00:00 8.7 5 Este 18 Este 0 -- -- 83
2019-03-28 01:00:00 9.2 10 Este 16 Este 0 -- -- 83
2019-03-28 00:00:00 9 9 Este 15 Este 0 -- -- 83
2019-03-27 23:00:00 9.2 9 Este 15 Este 0 -- -- 85
2019-03-27 22:00:00 9.3 8 Este 18 Este 0 -- -- 84
2019-03-27 21:00:00 10.3 12 Este 29 Este 0 -- -- 80
2019-03-27 20:00:00 10.9 22 Este 37 Este 0 -- -- 80
2019-03-27 19:00:00 11.7 22 Este 36 Este 0 -- -- 77
2019-03-27 18:00:00 12.1 23 Este 39 Este 0 -- -- 77
2019-03-27 17:00:00 12.8 22 Este 37 Este 0 -- -- 77
2019-03-27 16:00:00 13.2 22 Este 35 Este 0 -- -- 74
2019-03-27 15:00:00 13.5 21 Este 39 Este 0 -- -- 74
2019-03-27 14:00:00 13.4 24 Este 39 Este 0 -- -- 73
2019-03-27 13:00:00 13.6 24 Este 37 Este 0 -- -- 72
2019-03-27 12:00:00 13.8 19 Este 34 Este 0 -- -- 73
2019-03-27 11:00:00 13.4 20 Este 34 Este 0 -- -- 74
2019-03-27 10:00:00 12.6 17 Este 28 Este 0 -- -- 73
2019-03-27 09:00:00 11.1 13 Este 19 Este 0 -- -- 75
2019-03-27 08:00:00 9.9 9 Este 18 Este 0 -- -- 79
2019-03-27 07:00:00 9.5 9 Este 21 Este 0 -- -- 79
2019-03-27 06:00:00 9.8 11 Este 21 Este 0 -- -- 81
2019-03-27 05:00:00 9.6 10 Este 24 Este 0 -- -- 81
2019-03-27 04:00:00 10 11 Este 22 Este 0 -- -- 79
2019-03-27 03:00:00 10.1 12 Este 27 Este 0 -- -- 76
2019-03-27 02:00:00 10 12 Este 36 Este 0 -- -- 72
2019-03-27 01:00:00 10.3 22 Este 39 Este 0 -- -- 74
2019-03-27 00:00:00 9.3 13 Este 40 Este 0 -- -- 78
2019-03-26 23:00:00 9 14 Este 36 Este 0 -- -- 78
2019-03-26 22:00:00 9.9 21 Este 43 Nordeste 0 -- -- 78
2019-03-26 21:00:00 10.3 26 Este 46 Este 0 -- -- 79
2019-03-26 20:00:00 10.3 27 Este 48 Este 0 -- -- 79
2019-03-26 19:00:00 10.9 31 Este 53 Este 0 -- -- 76
2019-03-26 18:00:00 11.3 35 Este 60 Nordeste 0 -- -- 74
2019-03-26 17:00:00 11.8 32 Este 52 Nordeste 0 -- -- 73
2019-03-26 16:00:00 11.9 33 Este 54 Este 0 -- -- 72
2019-03-26 15:00:00 12.1 36 Este 59 Nordeste 0 -- -- 70
2019-03-26 14:00:00 12.1 36 Este 58 Este 0 -- -- 68
2019-03-26 13:00:00 12.2 35 Este 55 Este 0 -- -- 67
2019-03-26 12:00:00 12.2 36 Este 55 Este 0 -- -- 67
2019-03-26 11:00:00 12.1 34 Este 54 Este 0 -- -- 65
2019-03-26 10:00:00 11.9 31 Este 50 Este 0 -- -- 65
2019-03-26 09:00:00 11.4 28 Este 48 Este 0 -- -- 67
2019-03-26 08:00:00 10.8 21 Este 37 Este 0 -- -- 71
2019-03-26 07:00:00 10.8 23 Este 43 Este 0 -- -- 73
2019-03-26 06:00:00 11 22 Este 36 Este 0 -- -- 79
2019-03-26 05:00:00 11.1 21 Este 31 Este 0 -- -- 80
2019-03-26 04:00:00 9.7 8 Este 20 Este 0 -- -- 78
2019-03-26 03:00:00 10.4 10 Este 23 Este 0 -- -- 76
2019-03-26 02:00:00 10.7 14 Este 22 Este 0 -- -- 77
2019-03-26 01:00:00 10 8 Este 32 Este 0 -- -- 80
2019-03-26 00:00:00 11 22 Este 41 Este 0 -- -- 75
2019-03-25 23:00:00 11 24 Este 41 Este 0 -- -- 80
2019-03-25 22:00:00 11.2 23 Este 37 Este 0 -- -- 79
2019-03-25 21:00:00 11.2 24 Este 40 Este 0 -- -- 80
2019-03-25 20:00:00 11.4 23 Este 37 Este 0 -- -- 82
2019-03-25 19:00:00 11.6 22 Este 34 Este 0 -- -- 82
2019-03-25 18:00:00 12.4 23 Este 37 Este 0 -- -- 77
2019-03-25 17:00:00 13.1 22 Este 40 Este 0 -- -- 78
2019-03-25 16:00:00 13.4 22 Este 37 Nordeste 0 -- -- 78
2019-03-25 15:00:00 13.7 24 Este 39 Este 0 -- -- 80
2019-03-25 14:00:00 13.6 23 Este 39 Este 0 -- -- 79
2019-03-25 13:00:00 14.3 22 Este 34 Este 0 -- -- 76
2019-03-25 12:00:00 14.4 19 Este 33 Este 0 -- -- 75
2019-03-25 11:00:00 13.2 23 Este 36 Este 0 -- -- 83
2019-03-25 10:00:00 13.3 20 Este 33 Este 0 -- -- 85
2019-03-25 09:00:00 12.3 20 Este 33 Nordeste 0 -- -- 86
2019-03-25 08:00:00 12.1 17 Este 28 Este 0 -- -- 86
2019-03-25 07:00:00 12 15 Este 23 Nordeste 0 -- -- 86
2019-03-25 06:00:00 11.8 5 Este 20 Este 0 -- -- 87
2019-03-25 05:00:00 11.9 12 Este 26 Nordeste 0 -- -- 86
2019-03-25 04:00:00 12 17 Este 28 Este 0 -- -- 86
2019-03-25 03:00:00 12 15 Este 29 Este 0 -- -- 85
2019-03-25 02:00:00 12.3 17 Este 31 Nordeste 0 -- -- 82
2019-03-25 01:00:00 12.4 13 Este 23 Este 0 -- -- 89
2019-03-25 00:00:00 12.4 14 Este 28 Este 0 -- -- 90
2019-03-24 23:00:00 12.6 13 Este 21 Este 0 -- -- 93
2019-03-24 22:00:00 12.5 5 Nordeste 13 Nordeste 0 -- -- 94
2019-03-24 21:00:00 12.8 5 Este 15 Este 0 -- -- 94
2019-03-24 20:00:00 12.9 9 Este 18 Nordeste 0 -- -- 93
2019-03-24 19:00:00 13.2 6 Este 18 Nordeste 0 -- -- 90
2019-03-24 18:00:00 13.7 7 Este 16 Este 0 -- -- 90
2019-03-24 17:00:00 14.5 9 Nordeste 13 Norte 0 -- -- 87
2019-03-24 16:00:00 14.9 8 Norte 20 Nordeste 0 -- -- 88
2019-03-24 15:00:00 14.6 11 Norte 17 Norte 0 -- -- 88
2019-03-24 14:00:00 14.6 8 Norte 15 Norte 0 -- -- 88
2019-03-24 13:00:00 14.3 12 Nordeste 15 Norte 0 -- -- 89
2019-03-24 12:00:00 13.9 9 Nordeste 12 Nordeste 0 -- -- 89
2019-03-24 11:00:00 13.8 8 Nordeste 10 Nordeste 0 -- -- 93
2019-03-24 10:00:00 12.1 7 Sudoeste 12 Sudoeste 0 -- -- 100
2019-03-24 09:00:00 9.3 9 Sudoeste 14 Sudoeste 0 -- -- 100
2019-03-24 08:00:00 8.4 8 Sudoeste 13 Oeste 0 -- -- 100
2019-03-24 07:00:00 8.2 7 Oeste 12 Sudoeste 0 -- -- 99
2019-03-24 06:00:00 8.8 8 Oeste 13 Oeste 0 -- -- 100
2019-03-24 05:00:00 7.9 6 Sudoeste 10 Oeste 0 -- -- 100
2019-03-24 04:00:00 8.7 9 Oeste 14 Sudoeste 0 -- -- 99
2019-03-24 03:00:00 9.2 10 Sudoeste 15 Sudoeste 0 -- -- 99
2019-03-24 02:00:00 8.8 8 Sudoeste 13 Sudoeste 0 -- -- 99
2019-03-24 01:00:00 8.8 4 Sudoeste 8 Oeste 0 -- -- 99
2019-03-24 00:00:00 9.1 5 Sudoeste 9 Oeste 0 -- -- 99
2019-03-23 23:00:00 8.3 5 Sudoeste 8 Sudoeste 0 -- -- 96
2019-03-23 22:00:00 10.1 4 Oeste 10 Sudoeste 0 -- -- 95
2019-03-23 21:00:00 12 6 Nordeste 18 Nordeste 0 -- -- 93
2019-03-23 20:00:00 12.5 11 Nordeste 21 Nordeste 0 -- -- 92
2019-03-23 19:00:00 13.2 12 Este 25 Nordeste 0 -- -- 90
2019-03-23 18:00:00 13.8 15 Este 24 Nordeste 0 -- -- 86
2019-03-23 17:00:00 14.3 14 Este 25 Este 0 -- -- 84
2019-03-23 16:00:00 14.4 14 Nordeste 20 Este 0 -- -- 83
2019-03-23 15:00:00 14.8 10 Nordeste 15 Este 0 -- -- 88
2019-03-23 14:00:00 14.4 8 Nordeste 14 Este 0 -- -- 87
2019-03-23 13:00:00 14.1 10 Nordeste 14 Nordeste 0 -- -- 86
2019-03-23 12:00:00 13.4 7 Norte 12 Norte 0 -- -- 90
2019-03-23 11:00:00 12.9 8 Nordeste 11 Nordeste 0 -- -- 93
2019-03-23 10:00:00 11.5 3 Oeste 14 Sudoeste 0 -- -- 100
2019-03-23 09:00:00 8 11 Sudoeste 15 Sudoeste 0 -- -- 98
2019-03-23 08:00:00 5.9 9 Sudoeste 14 Sudoeste 0 -- -- 98
2019-03-23 07:00:00 5.7 8 Sudoeste 13 Oeste 0 -- -- 95
2019-03-23 06:00:00 5.5 7 Sudoeste 12 Sudoeste 0 -- -- 93
2019-03-23 05:00:00 5.8 9 Sudoeste 13 Sudoeste 0 -- -- 92
2019-03-23 04:00:00 6.1 9 Sudoeste 13 Oeste 0 -- -- 91
2019-03-23 03:00:00 6.2 9 Sudoeste 12 Sudoeste 0 -- -- 92
2019-03-23 02:00:00 6.7 8 Sudoeste 12 Sudoeste 0 -- -- 88
2019-03-23 01:00:00 7.4 9 Sudoeste 15 Sudoeste 0 -- -- 93
2019-03-23 00:00:00 6.6 3 Sudoeste 6 Sudoeste 0 -- -- 93
2019-03-22 23:00:00 8.4 2 Oeste 18 Sudoeste 0 -- -- 88
2019-03-22 22:00:00 9.7 10 Sudoeste 17 Sudoeste 0 -- -- 92
2019-03-22 21:00:00 9.1 3 Noroeste 4 Noroeste 0 -- -- 95
2019-03-22 20:00:00 9.8 0 Calma 4 Noroeste 0 -- -- 90
2019-03-22 19:00:00 13.5 0 Calma 9 Nordeste 0 -- -- 82
2019-03-22 18:00:00 14.6 6 Norte 10 Nordeste 0 -- -- 78
2019-03-22 17:00:00 15.4 3 Nordeste 9 Nordeste 0 -- -- 73
2019-03-22 16:00:00 14.8 7 Nordeste 11 Nordeste 0 -- -- 76
2019-03-22 15:00:00 14.6 7 Nordeste 11 Nordeste 0 -- -- 77
2019-03-22 14:00:00 13.8 8 Nordeste 13 Nordeste 0 -- -- 77
2019-03-22 13:00:00 13.3 10 Nordeste 15 Nordeste 0 -- -- 79
2019-03-22 12:00:00 13.1 11 Nordeste 14 Nordeste 0 -- -- 79
2019-03-22 11:00:00 12.5 11 Nordeste 14 Nordeste 0 -- -- 82
2019-03-22 10:00:00 11.7 4 Nordeste 11 Sudoeste 0 -- -- 86
2019-03-22 09:00:00 8.1 6 Sudoeste 16 Sudoeste 0 -- -- 94
2019-03-22 08:00:00 6.1 11 Sudoeste 15 Oeste 0 -- -- 97
2019-03-22 07:00:00 5.5 12 Sudoeste 17 Sudoeste 0 -- -- 97
2019-03-22 06:00:00 5.8 12 Sudoeste 17 Sudoeste 0 -- -- 97
2019-03-22 05:00:00 5.7 12 Sudoeste 17 Sudoeste 0 -- -- 96
2019-03-22 04:00:00 6 11 Sudoeste 17 Oeste 0 -- -- 96
2019-03-22 03:00:00 5.9 8 Oeste 14 Oeste 0 -- -- 95
2019-03-22 02:00:00 6 8 Sudoeste 13 Oeste 0 -- -- 94
2019-03-22 01:00:00 6.6 3 Sudoeste 19 Este 0 -- -- 88
2019-03-22 00:00:00 10.2 12 Este 21 Este 0 -- -- 83
2019-03-21 23:00:00 10.3 12 Este 23 Este 0 -- -- 84
2019-03-21 22:00:00 10.6 15 Este 23 Este 0 -- -- 85
2019-03-21 21:00:00 11.2 17 Este 35 Nordeste 0 -- -- 83
2019-03-21 20:00:00 11.7 20 Este 36 Este 0 -- -- 82
2019-03-21 19:00:00 12.1 19 Este 32 Este 0 -- -- 77
2019-03-21 18:00:00 12.9 20 Este 32 Este 0 -- -- 77
2019-03-21 17:00:00 13.2 17 Este 30 Este 0 -- -- 74
2019-03-21 16:00:00 13.5 17 Este 33 Este 0 -- -- 75
2019-03-21 15:00:00 13.7 14 Este 32 Este 0 -- -- 78
2019-03-21 14:00:00 13.7 13 Nordeste 27 Este 0 -- -- 73
2019-03-21 13:00:00 13.8 13 Este 30 Nordeste 0 -- -- 72
2019-03-21 12:00:00 13 13 Nordeste 21 Este 0 -- -- 77
2019-03-21 11:00:00 12.4 14 Este 23 Nordeste 0 -- -- 73
2019-03-21 10:00:00 11.5 13 Este 20 Este 0 -- -- 74
2019-03-21 09:00:00 9.5 10 Este 18 Este 0 -- -- 91
2019-03-21 08:00:00 4.3 2 Oeste 6 Sudoeste 0 -- -- 93
2019-03-21 07:00:00 5.2 2 Sudoeste 10 Este 0 -- -- 86
2019-03-21 06:00:00 8.3 6 Este 15 Este 0 -- -- 80
2019-03-21 05:00:00 8.9 8 Este 18 Este 0 -- -- 77
2019-03-21 04:00:00 9.5 9 Este 25 Este 0 -- -- 75
2019-03-21 03:00:00 9.4 13 Este 24 Este 0 -- -- 75
2019-03-21 02:00:00 9.2 12 Este 26 Este 0 -- -- 74
2019-03-21 01:00:00 9.1 13 Este 29 Este 0 -- -- 74
2019-03-21 00:00:00 9.3 15 Este 26 Este 0 -- -- 75